createdAt,value
2018-11-07T00:01:07.845Z,24.23
2018-11-07T00:03:37.681Z,19.00
2018-11-07T00:06:07.484Z,24.63
2018-11-07T00:08:37.801Z,22.83
2018-11-07T00:11:07.709Z,22.20
2018-11-07T00:13:37.430Z,22.23
2018-11-07T00:16:07.329Z,23.83
2018-11-07T00:18:36.845Z,24.60
2018-11-07T00:21:06.551Z,24.87
2018-11-07T00:23:36.768Z,25.03
2018-11-07T00:26:06.487Z,22.70
2018-11-07T00:28:36.390Z,22.30
2018-11-07T00:31:06.103Z,24.30
2018-11-07T00:33:35.910Z,24.10
2018-11-07T00:36:06.239Z,21.43
2018-11-07T00:38:37.900Z,19.60
2018-11-07T00:41:07.805Z,22.23
2018-11-07T00:43:37.820Z,26.47
2018-11-07T00:46:07.849Z,23.40
2018-11-07T00:48:37.850Z,19.93
2018-11-07T00:51:07.679Z,22.53
2018-11-07T00:53:37.680Z,22.83
2018-11-07T00:56:07.809Z,22.83
2018-11-07T00:58:37.822Z,27.00
2018-11-07T01:01:07.840Z,18.07
2018-11-07T01:03:37.750Z,21.73
2018-11-07T01:06:07.870Z,21.57
2018-11-07T01:08:38.190Z,19.80
2018-11-07T01:11:08.823Z,21.30
2018-11-07T01:13:38.836Z,22.40
2018-11-07T01:16:08.649Z,23.07
2018-11-07T01:18:38.778Z,27.50
2018-11-07T01:21:08.690Z,27.67
2018-11-07T01:23:39.110Z,26.37
2018-11-07T01:26:09.330Z,22.77
2018-11-07T01:28:39.250Z,24.77
2018-11-07T01:31:09.566Z,22.47
2018-11-07T01:33:39.390Z,20.43
2018-11-07T01:36:09.400Z,18.43
2018-11-07T01:38:39.099Z,19.87
2018-11-07T01:41:08.728Z,21.83
2018-11-07T01:43:38.422Z,25.63
2018-11-07T01:46:08.538Z,24.87
2018-11-07T01:48:38.249Z,20.97
2018-11-07T01:51:08.375Z,21.53
2018-11-07T01:53:38.080Z,20.57
2018-11-07T01:56:08.096Z,21.73
2018-11-07T01:58:37.804Z,20.87
2018-11-07T02:01:08.233Z,18.10
2018-11-07T02:03:38.144Z,20.30
2018-11-07T02:06:08.269Z,18.60
2018-11-07T02:08:38.790Z,16.50
2018-11-07T02:11:08.808Z,19.60
2018-11-07T02:13:38.729Z,18.10
2018-11-07T02:16:08.541Z,20.87
2018-11-07T02:18:38.759Z,18.13
2018-11-07T02:21:09.500Z,18.70
2018-11-07T02:23:39.915Z,17.63
2018-11-07T02:26:10.043Z,19.17
2018-11-07T02:28:40.050Z,20.80
2018-11-07T02:31:09.870Z,21.77
2018-11-07T02:33:39.470Z,17.37
2018-11-07T02:36:09.898Z,20.67
2018-11-07T02:38:39.708Z,16.20
2018-11-07T02:41:09.838Z,20.40
2018-11-07T02:43:39.840Z,16.30
2018-11-07T02:46:09.958Z,19.67
2018-11-07T02:48:39.469Z,18.53
2018-11-07T02:51:09.290Z,20.80
2018-11-07T02:53:39.495Z,18.33
2018-11-07T02:56:09.413Z,16.20
2018-11-07T02:58:39.131Z,20.70
2018-11-07T03:01:09.519Z,19.97
2018-11-07T03:03:39.256Z,19.03
2018-11-07T03:06:09.387Z,18.77
2018-11-07T03:08:39.087Z,18.43
2018-11-07T03:11:08.911Z,20.20
2018-11-07T03:13:38.502Z,18.47
2018-11-07T03:16:08.109Z,19.13
2018-11-07T03:18:37.815Z,18.20
2018-11-07T03:21:07.739Z,18.77
2018-11-07T03:23:37.438Z,19.77
2018-11-07T03:26:07.153Z,18.17
2018-11-07T03:28:36.856Z,22.30
2018-11-07T03:31:06.676Z,18.43
2018-11-07T03:33:36.917Z,19.50
2018-11-07T03:36:06.495Z,20.47
2018-11-07T03:38:36.514Z,22.77
2018-11-07T03:41:06.839Z,22.20
2018-11-07T03:43:36.448Z,21.10
2018-11-07T03:46:06.783Z,19.87
2018-11-07T03:48:36.792Z,20.43
2018-11-07T03:51:06.926Z,20.50
2018-11-07T03:53:36.715Z,21.63
2018-11-07T03:56:06.835Z,24.87
2018-11-07T03:58:37.263Z,21.33
2018-11-07T04:01:07.065Z,25.20
2018-11-07T04:03:36.475Z,25.57
2018-11-07T04:06:06.798Z,23.97
2018-11-07T04:08:37.124Z,23.87
2018-11-07T04:11:07.452Z,23.20
2018-11-07T04:13:37.382Z,24.73
2018-11-07T04:16:07.373Z,22.37
2018-11-07T04:18:37.805Z,23.03
2018-11-07T04:21:07.820Z,22.50
2018-11-07T04:23:37.631Z,27.13
2018-11-07T04:26:07.450Z,23.47
2018-11-07T04:28:37.259Z,23.77
2018-11-07T04:31:07.055Z,24.50
2018-11-07T04:33:37.390Z,21.77
2018-11-07T04:36:07.090Z,24.33
2018-11-07T04:38:36.811Z,23.53
2018-11-07T04:41:06.926Z,24.80
2018-11-07T04:43:36.637Z,25.97
2018-11-07T04:46:06.344Z,23.47
2018-11-07T04:48:36.463Z,26.03
2018-11-07T04:51:06.912Z,27.10
2018-11-07T04:53:37.028Z,35.60
2018-11-07T04:56:07.969Z,29.53
2018-11-07T04:58:37.979Z,26.03
2018-11-07T05:01:08.069Z,28.47
2018-11-07T05:03:38.096Z,24.10
2018-11-07T05:06:07.810Z,27.63
2018-11-07T05:08:37.695Z,22.87
2018-11-07T05:11:07.945Z,27.43
2018-11-07T05:13:37.992Z,22.50
2018-11-07T05:16:08.385Z,21.87
2018-11-07T05:18:37.890Z,22.37
2018-11-07T05:21:08.033Z,24.97
2018-11-07T05:23:38.375Z,26.00
2018-11-07T05:26:09.064Z,26.67
2018-11-07T05:28:38.779Z,22.57
2018-11-07T05:31:08.585Z,20.03
2018-11-07T05:33:38.812Z,23.23
2018-11-07T05:36:08.831Z,19.90
2018-11-07T05:38:38.944Z,21.07
2018-11-07T05:41:08.818Z,22.87
2018-11-07T05:43:39.085Z,24.00
2018-11-07T05:46:09.099Z,22.10
2018-11-07T05:48:39.016Z,22.63
2018-11-07T05:51:08.927Z,21.43
2018-11-07T05:53:38.839Z,24.10
2018-11-07T05:56:08.752Z,25.27
2018-11-07T05:58:39.304Z,22.60
2018-11-07T06:01:09.335Z,22.60
2018-11-07T06:03:39.343Z,24.43
2018-11-07T06:06:09.330Z,21.87
2018-11-07T06:08:39.912Z,17.87
2018-11-07T06:11:09.996Z,20.60
2018-11-07T06:13:39.915Z,26.40
2018-11-07T06:16:09.873Z,28.93
2018-11-07T06:18:39.717Z,35.10
2018-11-07T06:21:09.856Z,26.77
2018-11-07T06:23:39.983Z,22.93
2018-11-07T06:26:09.885Z,23.30
2018-11-07T06:28:39.904Z,21.80
2018-11-07T06:31:09.918Z,19.43
2018-11-07T06:33:40.330Z,19.93
2018-11-07T06:36:10.355Z,19.67
2018-11-07T06:38:40.796Z,24.13
2018-11-07T06:41:10.807Z,18.63
2018-11-07T06:43:40.934Z,21.90
2018-11-07T06:46:10.845Z,23.07
2018-11-07T06:48:41.015Z,39.83
2018-11-07T06:51:10.963Z,78.33
2018-11-07T06:53:40.796Z,67.90
2018-11-07T06:56:10.596Z,40.17
2018-11-07T06:58:40.626Z,31.80
2018-11-07T07:01:10.904Z,27.80
2018-11-07T07:03:40.939Z,22.60
2018-11-07T07:06:10.651Z,20.80
2018-11-07T07:08:40.663Z,27.47
2018-11-07T07:11:10.492Z,26.00
2018-11-07T07:13:40.078Z,26.40
2018-11-07T07:16:09.895Z,21.10
2018-11-07T07:18:39.813Z,19.47
2018-11-07T07:21:09.545Z,23.03
2018-11-07T07:23:39.567Z,19.30
2018-11-07T07:26:09.458Z,16.87
2018-11-07T07:28:39.276Z,18.30
2018-11-07T07:31:09.016Z,19.90
2018-11-07T07:33:38.633Z,17.30
2018-11-07T07:36:08.693Z,18.93
2018-11-07T07:38:38.933Z,17.97
2018-11-07T07:41:08.626Z,20.10
2018-11-07T07:43:38.764Z,18.87
2018-11-07T07:46:08.866Z,20.60
2018-11-07T07:48:38.376Z,16.43
2018-11-07T07:51:08.009Z,22.33
2018-11-07T07:53:37.681Z,20.60
2018-11-07T07:56:07.395Z,21.80
2018-11-07T07:58:37.416Z,16.97
2018-11-07T08:01:07.628Z,19.40
2018-11-07T08:03:37.242Z,16.67
2018-11-07T08:06:07.357Z,16.13
2018-11-07T08:08:37.176Z,17.63
2018-11-07T08:11:07.412Z,18.90
2018-11-07T08:13:37.494Z,19.40
2018-11-07T08:16:07.730Z,15.83
2018-11-07T08:18:37.749Z,17.40
2018-11-07T08:21:07.507Z,18.37
2018-11-07T08:23:37.778Z,21.37
2018-11-07T08:26:08.009Z,20.23
2018-11-07T08:28:37.709Z,17.43
2018-11-07T08:31:07.419Z,17.50
2018-11-07T08:33:37.241Z,19.43
2018-11-07T08:36:07.149Z,18.93
2018-11-07T08:38:37.165Z,15.97
2018-11-07T08:41:07.195Z,15.60
2018-11-07T08:43:37.820Z,17.97
2018-11-07T08:46:07.736Z,16.70
2018-11-07T08:48:37.336Z,19.23
2018-11-07T08:51:07.140Z,15.57
2018-11-07T08:53:37.274Z,16.53
2018-11-07T08:56:07.481Z,16.17
2018-11-07T08:58:36.887Z,15.83
2018-11-07T09:01:06.967Z,15.63
2018-11-07T09:03:36.917Z,19.57
2018-11-07T09:06:06.863Z,16.80
2018-11-07T09:08:36.852Z,17.60
2018-11-07T09:11:06.463Z,19.40
2018-11-07T09:13:36.503Z,19.33
2018-11-07T09:16:06.803Z,14.80
2018-11-07T09:18:36.810Z,17.37
2018-11-07T09:21:06.829Z,16.87
2018-11-07T09:23:36.433Z,16.80
2018-11-07T09:26:06.761Z,20.10
2018-11-07T09:28:36.366Z,19.33
2018-11-07T09:31:06.178Z,16.87
2018-11-07T09:33:36.303Z,17.73
2018-11-07T09:36:06.238Z,15.30
2018-11-07T09:38:36.017Z,16.40
2018-11-07T09:41:06.032Z,17.17
2018-11-07T09:43:35.985Z,14.20
2018-11-07T09:46:05.776Z,14.80
2018-11-07T09:48:35.787Z,16.67
2018-11-07T09:51:05.815Z,14.80
2018-11-07T09:53:35.948Z,15.17
2018-11-07T09:56:05.933Z,13.57
2018-11-07T09:58:36.378Z,14.80
2018-11-07T10:01:06.385Z,16.43
2018-11-07T10:03:36.395Z,17.97
2018-11-07T10:06:06.205Z,14.10
2018-11-07T10:08:35.912Z,17.73
2018-11-07T10:11:05.727Z,16.93
2018-11-07T10:13:35.331Z,15.00
2018-11-07T10:16:05.244Z,14.07
2018-11-07T10:18:35.263Z,14.67
2018-11-07T10:21:05.078Z,14.93
2018-11-07T10:23:35.216Z,15.47
2018-11-07T10:26:05.420Z,17.87
2018-11-07T10:28:37.388Z,16.90
2018-11-07T10:31:07.202Z,17.13
2018-11-07T10:33:37.017Z,14.87
2018-11-07T10:36:06.912Z,15.10
2018-11-07T10:38:37.384Z,13.93
2018-11-07T10:41:07.054Z,19.20
2018-11-07T10:43:37.284Z,16.27
2018-11-07T10:46:07.915Z,16.93
2018-11-07T10:48:38.128Z,18.43
2018-11-07T10:51:07.837Z,15.97
2018-11-07T10:53:37.757Z,22.20
2018-11-07T10:56:07.454Z,19.37
2018-11-07T10:58:37.166Z,16.17
2018-11-07T11:01:11.285Z,18.27
2018-11-07T11:03:41.099Z,16.70
2018-11-07T11:06:11.106Z,15.87
2018-11-07T11:08:40.822Z,17.57
2018-11-07T11:11:10.749Z,17.60
2018-11-07T11:13:41.466Z,14.33
2018-11-07T11:16:11.795Z,16.40
2018-11-07T11:18:41.807Z,14.83
2018-11-07T11:21:11.735Z,18.63
2018-11-07T11:23:41.737Z,14.90
2018-11-07T11:26:11.446Z,21.57
2018-11-07T11:28:41.256Z,16.33
2018-11-07T11:31:10.876Z,15.80
2018-11-07T11:33:40.686Z,15.83
2018-11-07T11:36:10.389Z,14.23
2018-11-07T11:38:40.196Z,18.50
2018-11-07T11:41:26.716Z,20.13
2018-11-07T11:43:56.437Z,16.73
2018-11-07T11:46:26.855Z,15.10
2018-11-07T11:48:56.944Z,15.30
2018-11-07T11:51:26.605Z,16.47
2018-11-07T11:53:56.379Z,16.83
2018-11-07T11:56:26.394Z,15.67
2018-11-07T11:59:00.949Z,20.00
2018-11-07T12:01:30.828Z,13.90
2018-11-07T12:04:00.955Z,18.10
2018-11-07T12:06:31.089Z,23.17
2018-11-07T12:09:01.471Z,21.57
2018-11-07T12:11:31.721Z,22.40
2018-11-07T12:14:01.827Z,18.43
2018-11-07T12:16:32.048Z,18.57
2018-11-07T12:19:02.496Z,17.83
2018-11-07T12:21:32.399Z,17.57
2018-11-07T12:24:03.016Z,14.27
2018-11-07T12:26:32.944Z,17.50
2018-11-07T12:29:02.855Z,20.13
2018-11-07T12:31:33.067Z,15.70
2018-11-07T12:34:03.190Z,16.13
2018-11-07T12:36:34.965Z,14.60
2018-11-07T12:39:05.277Z,20.17
2018-11-07T12:41:35.203Z,16.73
2018-11-07T12:44:05.317Z,14.00
2018-11-07T12:46:35.115Z,14.73
2018-11-07T12:49:05.263Z,17.53
2018-11-07T12:51:34.945Z,18.43
2018-11-07T12:54:04.784Z,17.67
2018-11-07T12:56:34.667Z,18.30
2018-11-07T12:59:04.488Z,15.93
2018-11-07T13:01:34.293Z,19.03
2018-11-07T13:04:04.426Z,17.30
2018-11-07T13:06:34.527Z,20.33
2018-11-07T13:09:05.166Z,239.87
2018-11-07T13:11:35.466Z,134.30
2018-11-07T13:14:06.016Z,136.10
2018-11-07T13:16:36.378Z,59.43
2018-11-07T13:19:06.767Z,37.33
2018-11-07T13:21:36.886Z,42.07
2018-11-07T13:24:06.897Z,30.83
2018-11-07T13:26:36.936Z,20.00
2018-11-07T13:29:06.536Z,26.47
2018-11-07T13:31:36.857Z,32.37
2018-11-07T13:34:07.527Z,17.97
2018-11-07T13:36:37.841Z,23.93
2018-11-07T13:39:10.226Z,85.00
2018-11-07T13:41:41.836Z,36.37
2018-11-07T13:44:12.357Z,38.03
2018-11-07T13:46:43.707Z,54.73
2018-11-07T13:49:13.738Z,85.00
2018-11-07T13:51:43.956Z,25.10
2018-11-07T13:54:13.446Z,57.03
2018-11-07T13:56:44.383Z,22.63
2018-11-07T13:59:14.477Z,32.40
2018-11-07T14:01:44.111Z,26.97
2018-11-07T14:04:14.959Z,27.97
2018-11-07T14:06:50.185Z,26.27
2018-11-07T14:09:20.086Z,33.07
2018-11-07T14:11:49.807Z,36.13
2018-11-07T14:14:19.835Z,37.83
2018-11-07T14:16:49.847Z,29.87
2018-11-07T14:19:19.553Z,39.13
2018-11-07T14:21:49.776Z,49.67
2018-11-07T14:24:20.197Z,26.73
2018-11-07T14:26:51.856Z,27.70
2018-11-07T14:29:23.215Z,23.00
2018-11-07T14:31:53.528Z,18.33
2018-11-07T14:34:30.004Z,20.83
2018-11-07T14:37:00.155Z,22.30
2018-11-07T14:39:30.027Z,20.50
2018-11-07T14:42:00.244Z,26.00
2018-11-07T14:44:30.697Z,18.13
2018-11-07T14:47:00.395Z,21.33
2018-11-07T14:49:30.705Z,21.73
2018-11-07T14:52:00.836Z,22.27
2018-11-07T14:54:31.372Z,20.17
2018-11-07T14:57:02.019Z,20.90
2018-11-07T14:59:32.947Z,18.60
2018-11-07T15:02:02.747Z,17.07
2018-11-07T15:04:33.052Z,18.70
2018-11-07T15:07:03.084Z,20.17
2018-11-07T15:09:33.505Z,15.47
2018-11-07T15:12:05.005Z,19.07
2018-11-07T15:14:35.953Z,16.20
2018-11-07T15:17:06.680Z,18.37
2018-11-07T15:19:38.158Z,19.23
2018-11-07T15:22:08.623Z,20.10
2018-11-07T15:24:39.871Z,16.17
2018-11-07T15:27:10.588Z,21.30
2018-11-07T15:29:41.003Z,22.30
2018-11-07T15:32:10.923Z,19.40
2018-11-07T15:34:40.965Z,16.47
2018-11-07T15:37:10.749Z,21.67
2018-11-07T15:39:40.459Z,22.33
2018-11-07T15:42:10.372Z,18.77
2018-11-07T15:44:40.793Z,21.63
2018-11-07T15:47:10.930Z,23.37
2018-11-07T15:49:45.009Z,22.00
2018-11-07T15:52:15.257Z,20.97
2018-11-07T15:54:45.178Z,22.33
2018-11-07T15:57:15.198Z,22.00
2018-11-07T15:59:45.334Z,23.70
2018-11-07T16:02:15.126Z,22.37
2018-11-07T16:04:45.131Z,22.47
2018-11-07T16:07:15.585Z,23.77
2018-11-07T16:09:45.585Z,23.03
2018-11-07T16:12:15.786Z,25.97
2018-11-07T16:14:45.817Z,22.77
2018-11-07T16:17:16.011Z,28.00
2018-11-07T16:19:46.155Z,28.03
2018-11-07T16:22:16.168Z,25.23
2018-11-07T16:24:46.395Z,22.27
2018-11-07T16:27:15.896Z,21.40
2018-11-07T16:29:48.884Z,23.47
2018-11-07T16:32:18.800Z,22.47
2018-11-07T16:34:48.817Z,22.63
2018-11-07T16:37:18.828Z,21.63
2018-11-07T16:39:48.959Z,19.90
2018-11-07T16:42:18.978Z,23.50
2018-11-07T16:44:48.987Z,20.40
2018-11-07T16:47:19.101Z,19.60
2018-11-07T16:49:49.838Z,20.17
2018-11-07T16:52:20.489Z,26.17
2018-11-07T16:54:50.178Z,24.67
2018-11-07T16:57:20.399Z,27.13
2018-11-07T16:59:50.608Z,26.20
2018-11-07T17:02:20.538Z,33.60
2018-11-07T17:04:50.267Z,127.53
2018-11-07T17:07:20.392Z,178.73
2018-11-07T17:09:50.598Z,108.33
2018-11-07T17:12:21.005Z,62.63
2018-11-07T17:14:50.918Z,42.73
2018-11-07T17:17:20.727Z,34.50
2018-11-07T17:19:50.643Z,29.17
2018-11-07T17:22:20.252Z,33.47
2018-11-07T17:24:50.047Z,30.17
2018-11-07T17:27:20.070Z,27.00
2018-11-07T17:29:50.090Z,27.30
2018-11-07T17:32:20.415Z,22.80
2018-11-07T17:34:51.017Z,24.87
2018-11-07T17:37:33.856Z,22.70
2018-11-07T17:40:04.001Z,23.07
2018-11-07T17:42:34.318Z,21.83
2018-11-07T17:45:04.937Z,25.37
2018-11-07T17:47:35.258Z,21.73
2018-11-07T17:50:06.011Z,25.80
2018-11-07T17:52:36.235Z,20.53
2018-11-07T17:55:06.636Z,20.50
2018-11-07T17:57:36.967Z,26.37
2018-11-07T18:00:07.497Z,27.20
2018-11-07T18:02:37.819Z,27.70
2018-11-07T18:05:08.136Z,23.73
2018-11-07T18:07:44.681Z,24.60
2018-11-07T18:10:16.780Z,26.63
2018-11-07T18:12:48.128Z,25.23
2018-11-07T18:34:04.137Z,29.20
2018-11-07T18:36:35.180Z,25.40
2018-11-07T18:39:07.336Z,28.00
2018-11-07T18:41:40.959Z,27.57
2018-11-07T18:44:14.294Z,23.53
2018-11-07T18:46:47.749Z,25.13
2018-11-07T18:49:20.611Z,29.03
2018-11-07T18:51:51.255Z,26.50
2018-11-07T18:54:21.877Z,25.43
2018-11-07T18:56:53.038Z,31.20
2018-11-07T18:59:27.747Z,28.07
2018-11-07T19:01:57.973Z,33.37
2018-11-07T19:04:28.697Z,37.10
2018-11-07T19:06:59.636Z,36.57
2018-11-07T19:09:29.773Z,30.77
2018-11-07T19:12:00.394Z,30.97
2018-11-07T19:14:31.536Z,33.70
2018-11-07T19:17:01.341Z,41.57
2018-11-07T19:19:33.827Z,37.97
2018-11-07T19:22:08.349Z,33.57
2018-11-07T19:24:40.515Z,33.70
2018-11-07T19:27:10.770Z,35.73
2018-11-07T19:29:42.071Z,33.43
2018-11-07T19:32:12.807Z,31.90
2018-11-07T19:34:43.957Z,31.03
2018-11-07T19:37:15.618Z,26.73
2018-11-07T19:39:53.003Z,25.80
2018-11-07T19:42:23.729Z,25.53
2018-11-07T19:44:53.845Z,21.60
2018-11-07T19:47:27.855Z,24.20
2018-11-07T19:49:58.202Z,24.40
2018-11-07T19:52:28.301Z,27.10
2018-11-07T19:54:58.475Z,24.80
2018-11-07T19:57:28.540Z,29.70
2018-11-07T19:59:58.245Z,29.80
2018-11-07T20:02:31.651Z,31.93
2018-11-07T20:05:01.462Z,31.07
2018-11-07T20:07:32.290Z,36.03
2018-11-07T20:10:03.142Z,27.33
2018-11-07T20:12:34.997Z,29.37
2018-11-07T20:15:10.009Z,27.60
2018-11-07T20:17:40.242Z,25.10
2018-11-07T20:20:13.329Z,29.43
2018-11-07T20:22:43.432Z,27.40
2018-11-07T20:25:15.127Z,31.53
2018-11-07T20:27:48.291Z,41.50
2018-11-07T20:30:21.878Z,33.00
2018-11-07T20:32:53.143Z,38.83
2018-11-07T20:35:24.410Z,38.70
2018-11-07T20:37:54.503Z,32.13
2018-11-07T20:40:25.141Z,52.33
2018-11-07T20:42:59.451Z,46.07
2018-11-07T20:45:30.395Z,35.03
2018-11-07T20:48:01.004Z,28.73
2018-11-07T20:50:36.052Z,32.37
2018-11-07T20:53:06.895Z,31.17
2018-11-07T20:55:36.806Z,30.77
2018-11-07T20:58:07.229Z,27.53
2018-11-07T21:00:37.357Z,29.97
2018-11-07T21:03:07.383Z,29.57
2018-11-07T21:05:38.616Z,30.43
2018-11-07T21:08:08.834Z,27.97
2018-11-07T21:10:39.365Z,30.07
2018-11-07T21:13:09.495Z,29.47
2018-11-07T21:15:39.907Z,29.33
2018-11-07T21:18:10.975Z,33.93
2018-11-07T21:20:41.058Z,29.83
2018-11-07T21:23:11.186Z,26.13
2018-11-07T21:25:41.203Z,28.13
2018-11-07T21:28:11.420Z,28.07
2018-11-07T21:30:41.850Z,28.17
2018-11-07T21:33:12.477Z,28.17
2018-11-07T21:35:42.500Z,26.73
2018-11-07T21:38:23.573Z,27.77
2018-11-07T21:40:53.700Z,28.57
2018-11-07T21:43:25.382Z,29.37
2018-11-07T21:45:57.417Z,35.90
2018-11-07T21:48:28.967Z,26.83
2018-11-07T21:50:58.876Z,31.57
2018-11-07T21:53:28.790Z,30.53
2018-11-07T21:55:58.817Z,27.53
2018-11-07T21:58:28.934Z,32.80
2018-11-07T22:01:00.479Z,27.53
2018-11-07T22:03:30.495Z,33.10
2018-11-07T22:06:00.714Z,34.03
2018-11-07T22:08:30.527Z,28.07
2018-11-07T22:11:00.448Z,29.33
2018-11-07T22:13:30.778Z,34.07
2018-11-07T22:16:06.011Z,33.07
2018-11-07T22:18:36.337Z,34.23
2018-11-07T22:21:06.256Z,32.63
2018-11-07T22:23:35.851Z,31.77
2018-11-07T22:26:05.763Z,25.30
2018-11-07T22:28:35.473Z,28.40
2018-11-07T22:31:05.395Z,29.53
2018-11-07T22:33:35.403Z,27.00
2018-11-07T22:36:05.527Z,26.43
2018-11-07T22:38:36.257Z,25.53
2018-11-07T22:41:06.889Z,28.17
2018-11-07T22:43:36.496Z,28.20
2018-11-07T22:46:06.408Z,24.77
2018-11-07T22:48:35.913Z,24.03
2018-11-07T22:51:06.131Z,26.10
2018-11-07T22:53:36.254Z,24.87
2018-11-07T22:56:06.059Z,28.03
2018-11-07T22:58:36.071Z,26.00
2018-11-07T23:01:10.082Z,28.63
2018-11-07T23:03:39.931Z,31.47
2018-11-07T23:06:09.817Z,29.87
2018-11-07T23:08:39.735Z,30.73
2018-11-07T23:11:09.439Z,28.37
2018-11-07T23:13:39.457Z,28.37
2018-11-07T23:16:09.783Z,28.87
2018-11-07T23:18:39.811Z,25.30
2018-11-07T23:21:09.717Z,25.67
2018-11-07T23:23:40.548Z,27.47
2018-11-07T23:26:10.983Z,24.20
2018-11-07T23:28:40.683Z,24.53
2018-11-07T23:31:10.698Z,25.67
2018-11-07T23:33:40.408Z,22.83
2018-11-07T23:36:10.638Z,25.50
2018-11-07T23:38:40.444Z,25.67
2018-11-07T23:41:11.483Z,25.47
2018-11-07T23:43:41.702Z,24.07
2018-11-07T23:46:11.419Z,23.80
2018-11-07T23:48:41.129Z,21.90
2018-11-07T23:51:11.139Z,21.93
2018-11-07T23:53:41.156Z,25.23
2018-11-07T23:56:11.172Z,22.23
2018-11-07T23:58:41.299Z,22.67
